リオデジャネイロ/サントス・デュモン の空港の天気 - METARとTAF

サントス・デュモン空港 ( SBRJ / SDU ) - ブラジル リオデジャネイロ州リオデジャネイロ市
飛行場実況気象(Metar)
観測時間01/23 00:00 BRST (01/23 02:00 UTC)
風向・風速南 4m/s
視程10km以上
天気現象
少しの雲 雲底高度 760m
全天の8割程度の雲 雲底高度 3050m
気温26℃
湿度79%
気圧1017hPa
METARSBRJ 230200Z 19008KT 9999 FEW025 BKN100 26/22 Q1017
過去の天気等 Google飛行場航空写真 Wunderground天気予報

過去48時間のMETAR

飛行場予報(TAF)
発表時間: 1/22 18:40 BRST (1/22 20:40 UTC)
予報対象時間: 22日22時 BRST ~ 23日10時 BRST
風向・風速南 4m/s
視程10km以上
少しの雲 雲底高度 760m
23日4時 BRST ~ 23日6時 BRST に徐々に
風向・風速北北東 3m/s
23日9時 BRST ~ 23日10時 BRST に徐々に
風向・風速南南東 4m/s
TAF SBRJ 222040Z 2300/2312 17007KT 9999 FEW025 TN25/2309Z TX27/2312Z
BECMG 2306/2308 02005KT
BECMG 2311/2312 15007KT RMK PHQ